Airfield :
LOGIN :

Register | Disclaimer

   EN    FR    IT 

 










Legend :    VFR   Marginal VFR   IFR   Intensive IFR   Very Intensive IFR
Visi :
Ceiling :
>= 8 km
>= 3000ft
5 to 8 km
1000 to 3000 ft
1500m to 5 km
500 to 1000 ft
800 to 1500m
200 to 500 ft
< 800m
< 200 ft
Symbols :   Thunderstorms  Fog  Heavy snow  Heavy precipitations  Wind > 20 kt
SIGMETs :     Misc.  Thunderstorms  Icing  Turbulence  Mountain Waves  Volcanic Ashes






- Airport Elevation : 17 ft
- IATA code : GRS


LIRS - Grosseto

CURRENT METAR :
  • 221255Z 22010KT CAVOK 25/21 Q1014 RMK SCT SCT200 VIS MIN 9999 WIND THR03 24011KT WIND THR21 24011KT BLU

EXPIRED METARs :
  • 221155Z 22011KT CAVOK 25/20 Q1014 RMK SCT SCT200 VIS MIN 9999 WIND THR03 22011KT WIND THR21 22010KT BLU
  • 221055Z 23008KT CAVOK 26/19 Q1014 RMK SCT SCT200 VIS MIN 9999 WIND THR03 26007KT WIND THR21 24008KT BLU

TAF TAF LIRS
Valid from the 22 at 12:00 until the 22 at 21:00 UTC


221100Z 2212/2221 23012KT CAVOK
BECMG 2218/2220 VRB02KT



MET'MAP, your aeronautical weather chart ! - Copyright ORBIFLY December 2007 - Disclaimer

ORBIFLY MET'MAP TEAM :

Programming & Development : Alexandra Zaïnal
Original concept : Baudouin d'Aumeries
Technical & hardware support : Manuel Goepfert
Assistance : Marc-Olivier Méhu

Contact : metmap@orbifly.com




SOURCES & CREDITS :

   NOAA